Time;durP1;ratioP1;P1;durP2;ratioP2;P2;SDS_P1;SDS_P2;PMS_P1;PMS_P2;Temp;Humidity;BMP_temperature;BMP_pressure;BME280_temperature;BME280_humidity;BME280_pressure;Samples;Min_cycle;Max_cycle;Signal;HPM_P1;HPM_P2
2022/07/23 00:00:33;;;;;;;4.50;3.50;;;26.40;56.00;;;25.28;44.29;99983.69;10443322;27;96534;-93
2022/07/23 00:05:41;;;;;;;5.78;3.67;;;26.30;56.10;;;25.19;44.88;99982.56;10421843;27;96720;-92
2022/07/23 00:10:44;;;;;;;5.57;3.55;;;26.20;56.40;;;25.11;45.12;99978.47;10434365;27;96624;-92
2022/07/23 00:15:47;;;;;;;5.00;3.15;;;26.20;56.80;;;25.06;45.62;99983.91;10432539;27;96608;-92
2022/07/23 00:20:51;;;;;;;5.53;3.50;;;26.10;56.90;;;25.00;45.77;99983.03;10439182;27;96580;-92
2022/07/23 00:25:54;;;;;;;3.85;3.38;;;26.00;57.00;;;24.95;45.89;99979.50;10427102;27;96836;-92
2022/07/23 00:30:57;;;;;;;3.88;3.40;;;26.10;57.20;;;24.90;46.36;99983.03;10444634;27;97325;-91
2022/07/23 00:36:00;;;;;;;6.30;3.55;;;26.00;57.20;;;24.86;46.35;99997.41;10441178;27;96722;-90
2022/07/23 00:41:03;;;;;;;6.45;3.20;;;26.00;57.40;;;24.73;46.34;99994.13;10410672;27;96519;-90
2022/07/23 00:46:05;;;;;;;7.50;3.50;;;25.90;57.50;;;24.62;46.47;100000.59;10437215;27;98306;-92
2022/07/23 00:51:08;;;;;;;4.65;3.50;;;25.70;57.40;;;24.45;45.22;100008.94;10442131;27;98362;-91
2022/07/23 00:56:12;;;;;;;5.47;3.60;;;25.60;56.80;;;24.32;44.93;99994.97;10432247;27;97681;-92
2022/07/23 01:01:15;;;;;;;6.00;3.72;;;25.40;56.70;;;24.23;44.90;99990.06;10455328;27;97478;-88
2022/07/23 01:06:18;;;;;;;3.95;3.25;;;25.30;56.50;;;24.20;44.96;99997.91;10461207;27;96629;-90
2022/07/23 01:11:23;;;;;;;5.60;3.75;;;25.20;56.40;;;24.16;45.31;99994.06;10460500;27;96566;-90
2022/07/23 01:16:26;;;;;;;6.10;3.40;;;25.20;56.50;;;;;;10449284;27;97496;-91
2022/07/23 01:21:30;;;;;;;4.40;3.53;;;25.20;56.60;;;24.01;45.51;99997.50;10439550;27;96388;-91
2022/07/23 01:26:33;;;;;;;6.50;3.30;;;25.10;56.60;;;23.89;45.58;99996.88;10431658;27;96986;-91
2022/07/23 01:31:36;;;;;;;4.40;3.50;;;25.00;56.80;;;23.83;46.00;100004.16;10428004;27;96615;-91
2022/07/23 01:36:40;;;;;;;5.50;3.30;;;24.80;57.00;;;23.74;46.24;100009.25;10407033;28;96600;-89
2022/07/23 01:41:43;;;;;;;3.58;3.28;;;24.80;57.30;;;23.62;46.79;100003.16;10435734;27;96646;-89
2022/07/23 01:46:51;;;;;;;4.53;3.60;;;24.60;57.60;;;23.53;46.68;100002.00;10447441;27;98329;-89
2022/07/23 01:52:01;;;;;;;7.75;3.58;;;24.50;58.00;;;23.48;47.79;99999.22;10422946;27;97031;-90
2022/07/23 01:57:05;;;;;;;7.83;3.87;;;24.50;58.40;;;23.39;48.23;99996.19;10437052;27;97843;-89
2022/07/23 02:02:08;;;;;;;7.47;4.13;;;24.40;58.80;;;23.36;48.50;99996.69;10414087;27;96692;-89
2022/07/23 02:07:11;;;;;;;5.53;3.78;;;24.40;59.20;;;23.33;48.65;99990.94;10438161;27;97135;-89
2022/07/23 02:12:16;;;;;;;3.63;3.28;;;24.40;59.50;;;23.24;48.84;99994.13;10438874;27;97081;-93
2022/07/23 02:17:19;;;;;;;4.90;3.85;;;24.30;59.70;;;23.14;49.09;99994.00;10450365;27;96576;-92
2022/07/23 02:22:22;;;;;;;6.22;3.78;;;24.20;59.90;;;23.10;49.05;99994.81;10452439;27;96545;-92
2022/07/23 02:27:25;;;;;;;4.75;3.50;;;24.20;60.20;;;22.99;49.64;99985.75;10452369;27;98581;-93
2022/07/23 02:32:28;;;;;;;5.25;3.97;;;24.10;60.40;;;22.89;50.56;99996.47;10414843;27;98438;-93
2022/07/23 02:37:32;;;;;;;5.80;3.88;;;24.00;61.10;;;22.77;51.27;99988.44;10433068;27;97278;-92
2022/07/23 02:42:35;;;;;;;6.65;3.95;;;23.80;61.50;;;22.72;51.37;100001.91;10425204;27;96617;-93
2022/07/23 02:47:38;;;;;;;4.78;3.92;;;23.80;61.90;;;22.69;51.34;99994.31;10453927;27;96635;-92
2022/07/23 02:52:41;;;;;;;4.88;3.60;;;23.80;61.90;;;22.71;51.41;100006.50;10424397;27;96556;-93
2022/07/23 02:57:44;;;;;;;5.47;3.67;;;23.80;62.00;;;22.69;51.22;99999.72;10461579;27;96576;-93
2022/07/23 03:02:47;;;;;;;5.72;4.03;;;23.80;61.80;;;22.67;51.60;100002.69;10432236;27;96778;-93
2022/07/23 03:07:50;;;;;;;6.65;4.35;;;23.80;61.90;;;22.63;51.45;100004.25;10444884;27;97331;-93
2022/07/23 03:12:52;;;;;;;5.68;3.78;;;23.70;62.20;;;22.66;51.72;100014.56;10464093;27;97281;-91
2022/07/23 03:17:55;;;;;;;4.15;3.53;;;23.80;62.10;;;22.64;50.86;100011.31;10447107;27;96648;-91
2022/07/23 03:22:59;;;;;;;4.30;3.30;;;23.80;61.40;;;22.65;50.01;100006.72;10409150;27;96615;-92
2022/07/23 03:28:02;;;;;;;4.38;3.20;;;23.80;60.70;;;22.62;49.53;100002.63;10434043;27;96928;-91
2022/07/23 03:33:04;;;;;;;4.00;2.90;;;23.70;60.50;;;22.59;49.36;99996.88;10437583;27;98670;-91
2022/07/23 03:38:07;;;;;;;3.42;2.95;;;23.70;60.20;;;22.63;49.11;99988.00;10443179;27;97447;-89
2022/07/23 03:43:10;;;;;;;5.70;3.55;;;23.70;60.20;;;22.69;49.36;100005.13;10436212;27;96487;-92
2022/07/23 03:48:13;;;;;;;3.88;3.10;;;23.80;60.40;;;22.75;50.43;100000.59;10434412;27;96753;-87
2022/07/23 03:53:16;;;;;;;4.70;3.38;;;23.80;60.60;;;22.84;49.89;99999.88;10469109;27;96753;-87
2022/07/23 03:58:19;;;;;;;6.05;5.38;;;24.00;60.80;;;22.98;50.38;100005.78;10441908;27;97295;-86
2022/07/23 04:03:22;;;;;;;6.45;3.80;;;24.00;60.90;;;23.06;50.47;100002.63;10434428;27;96675;-87
2022/07/23 04:08:25;;;;;;;3.67;3.25;;;24.20;60.70;;;23.19;50.19;100006.81;10469080;27;96716;-82
2022/07/23 04:13:28;;;;;;;4.47;3.28;;;24.30;60.50;;;23.28;49.69;100009.91;10469491;27;96721;-82
2022/07/23 04:18:31;;;;;;;4.15;3.67;;;24.40;60.40;;;23.36;49.89;100007.53;10424812;27;97016;-81
2022/07/23 04:23:34;;;;;;;4.63;3.22;;;24.50;60.60;;;23.44;49.26;100012.47;10464938;27;96659;-82
2022/07/23 04:28:37;;;;;;;4.78;3.58;;;24.60;60.50;;;23.56;49.82;100006.88;10435260;27;96768;-82
2022/07/23 04:33:40;;;;;;;10.23;3.33;;;24.70;60.70;;;23.65;49.90;100008.09;10429650;27;96577;-81
2022/07/23 04:38:43;;;;;;;7.32;3.50;;;24.80;60.70;;;23.73;49.76;100015.75;10446057;27;96654;-82
2022/07/23 04:43:46;;;;;;;5.72;3.80;;;24.80;60.70;;;23.81;50.07;100024.47;10429785;27;96655;-81
2022/07/23 04:48:49;;;;;;;5.35;3.72;;;24.90;60.80;;;23.86;50.36;100024.53;10447793;27;96600;-82
2022/07/23 04:53:52;;;;;;;4.07;3.45;;;25.00;60.90;;;23.91;50.71;100030.81;10459772;27;97727;-82
2022/07/23 04:58:54;;;;;;;7.57;4.30;;;25.00;61.10;;;24.03;51.12;100027.91;10433651;27;96744;-83
2022/07/23 05:03:57;;;;;;;5.65;3.65;;;25.10;61.50;;;24.11;50.84;100016.59;10445154;27;96718;-82
2022/07/23 05:09:00;;;;;;;6.00;4.00;;;25.20;61.60;;;24.21;51.37;100016.63;10425151;27;96898;-83
2022/07/23 05:14:04;;;;;;;5.80;4.22;;;25.20;61.80;;;24.34;51.45;100017.25;10424670;27;96632;-82
2022/07/23 05:19:07;;;;;;;5.00;3.55;;;25.40;62.10;;;24.44;51.25;100020.06;10464927;27;96847;-82
2022/07/23 05:24:10;;;;;;;5.97;3.72;;;25.50;61.90;;;24.55;50.64;100019.03;10464816;27;96558;-82
2022/07/23 05:29:12;;;;;;;5.70;3.65;;;25.50;61.70;;;24.64;50.67;100022.06;10427415;27;96791;-82
2022/07/23 05:34:15;;;;;;;3.95;3.55;;;25.60;61.80;;;24.74;50.78;100017.47;10432605;27;96597;-82
2022/07/23 05:39:19;;;;;;;4.85;3.53;;;25.70;61.80;;;24.89;50.19;100011.31;10430268;27;96790;-82
2022/07/23 05:44:22;;;;;;;6.50;3.63;;;25.90;61.50;;;25.08;49.82;100011.66;10454489;27;96738;-82
2022/07/23 05:49:25;;;;;;;7.68;4.18;;;26.00;61.10;;;25.26;49.09;100005.72;10429770;27;96685;-82
2022/07/23 05:54:28;;;;;;;5.82;3.92;;;26.20;60.80;;;25.48;48.53;100012.78;10438362;27;96698;-82
2022/07/23 05:59:31;;;;;;;4.10;3.10;;;26.40;60.70;;;25.72;49.17;100000.28;10428089;27;97122;-82
2022/07/23 06:04:34;;;;;;;5.05;3.20;;;26.70;60.80;;;26.00;48.52;99992.69;10423995;27;96751;-82
2022/07/23 06:09:37;;;;;;;9.55;3.97;;;27.00;60.50;;;26.30;48.24;99992.63;10433644;27;96848;-83
2022/07/23 06:14:41;;;;;;;7.30;3.72;;;27.30;60.30;;;26.64;46.68;99989.28;10451062;27;96867;-82
2022/07/23 06:19:44;;;;;;;8.73;3.58;;;27.60;59.30;;;26.95;45.10;99982.56;10427807;27;96857;-82
2022/07/23 06:24:47;;;;;;;5.50;3.25;;;27.90;58.00;;;27.23;44.73;99993.88;10432291;27;96931;-83
2022/07/23 06:29:50;;;;;;;5.30;3.20;;;28.20;57.30;;;27.49;43.96;99983.59;10433267;27;96852;-83
2022/07/23 06:34:53;;;;;;;6.20;2.90;;;28.50;57.00;;;27.74;41.69;99982.59;10452485;27;96794;-82
2022/07/23 06:39:56;;;;;;;7.78;3.88;;;28.70;55.40;;;27.97;41.58;99981.81;10443591;27;96553;-83
2022/07/23 06:44:59;;;;;;;6.70;3.10;;;29.00;55.10;;;28.24;40.49;99989.44;10448920;27;97431;-83
2022/07/23 06:50:03;;;;;;;7.00;3.22;;;29.20;54.40;;;28.48;39.31;99978.56;10429241;27;96743;-84
2022/07/23 06:55:06;;;;;;;5.57;3.00;;;29.50;53.70;;;28.73;38.94;99973.91;10440574;27;96618;-83
2022/07/23 07:00:10;;;;;;;5.28;2.92;;;29.70;52.90;;;29.00;38.87;99968.59;10411588;27;97400;-83
2022/07/23 07:05:13;;;;;;;4.75;3.00;;;30.00;53.20;;;29.23;37.35;99969.63;10430711;27;97355;-81
2022/07/23 07:10:17;;;;;;;7.80;3.13;;;30.20;51.60;;;29.40;37.60;99954.59;10443759;27;96590;-82
2022/07/23 07:15:20;;;;;;;5.43;3.00;;;30.40;51.40;;;29.65;36.54;99953.41;10437400;27;96691;-82
2022/07/23 07:20:23;;;;;;;12.57;4.07;;;30.60;50.70;;;29.84;36.23;99943.19;10448918;27;96794;-82
2022/07/23 07:25:26;;;;;;;15.63;10.35;;;30.80;50.30;;;30.09;35.40;99939.94;10418997;27;96438;-82
2022/07/23 07:30:30;;;;;;;7.63;4.60;;;31.00;49.70;;;30.35;35.01;99942.25;10439163;27;96687;-82
2022/07/23 07:35:36;;;;;;;8.70;4.20;;;31.30;49.30;;;30.65;35.16;99946.25;10445481;27;96595;-82
2022/07/23 07:40:39;;;;;;;8.38;3.67;;;31.60;49.60;;;30.92;35.33;99946.22;10462351;27;96360;-83
2022/07/23 07:45:42;;;;;;;7.65;3.60;;;31.80;49.60;;;31.20;34.58;99940.66;10423261;27;96870;-82
2022/07/23 07:50:45;;;;;;;5.93;3.00;;;32.10;49.10;;;31.51;34.25;99934.41;10440822;27;97029;-83
2022/07/23 07:55:48;;;;;;;5.65;3.50;;;32.50;48.70;;;31.81;33.79;99930.09;10453857;27;98832;-83
2022/07/23 08:00:53;;;;;;;5.55;3.42;;;32.70;48.30;;;32.12;32.71;99921.81;10426372;27;96582;-83
2022/07/23 08:05:56;;;;;;;4.82;2.92;;;33.10;47.90;;;32.39;32.00;99923.56;10460222;27;96813;-83
2022/07/23 08:10:59;;;;;;;7.93;3.28;;;33.30;47.10;;;32.62;31.16;99922.28;10456054;27;96489;-84
2022/07/23 08:16:03;;;;;;;6.13;3.25;;;33.60;46.50;;;32.86;30.70;99918.25;10422715;27;96957;-83
2022/07/23 08:21:11;;;;;;;6.95;3.25;;;33.80;46.10;;;33.10;30.28;99917.78;10440309;27;98373;-83
2022/07/23 08:26:14;;;;;;;7.53;3.35;;;34.00;45.40;;;33.27;30.42;99918.59;10420324;27;97398;-83
2022/07/23 08:31:17;;;;;;;9.82;3.20;;;34.20;45.40;;;33.48;29.09;99912.44;10417296;27;97175;-84
2022/07/23 08:36:20;;;;;;;4.25;2.97;;;34.40;44.70;;;33.67;28.95;99917.56;10433657;27;97853;-85
2022/07/23 08:41:23;;;;;;;6.70;3.05;;;34.60;44.60;;;33.79;28.90;99907.47;10450292;27;96674;-85
2022/07/23 08:46:27;;;;;;;5.28;3.30;;;34.80;44.30;;;33.95;28.43;99909.72;10449453;27;96930;-86
2022/07/23 08:51:31;;;;;;;6.85;2.92;;;34.90;43.90;;;34.12;28.81;99906.06;10426992;27;97312;-84
2022/07/23 08:56:35;;;;;;;6.22;3.28;;;35.10;44.00;;;34.27;28.41;99895.28;10432454;27;96633;-84
2022/07/23 09:01:38;;;;;;;7.25;3.53;;;35.20;43.80;;;34.51;27.82;99889.16;10459231;27;96598;-85
2022/07/23 09:06:42;;;;;;;9.75;3.63;;;35.40;43.60;;;34.71;27.88;99897.75;10446850;27;97605;-86
2022/07/23 09:11:48;;;;;;;6.72;3.35;;;35.60;43.50;;;34.94;27.70;99884.44;10450159;27;96735;-85
2022/07/23 09:16:51;;;;;;;5.40;3.17;;;35.80;43.40;;;35.18;27.28;99879.03;10436285;27;96758;-84
2022/07/23 09:21:54;;;;;;;4.82;3.53;;;36.10;43.00;;;35.42;26.75;99883.00;10425876;27;97560;-83
2022/07/23 09:26:57;;;;;;;7.75;4.13;;;36.30;42.70;;;35.74;25.94;99865.56;10440172;27;97806;-85
2022/07/23 09:32:05;;;;;;;5.30;3.25;;;36.60;42.10;;;35.99;25.88;99869.19;10433047;27;96787;-83
2022/07/23 09:37:16;;;;;;;6.18;3.00;;;36.80;42.10;;;36.32;24.67;99866.28;10427535;27;96676;-83
2022/07/23 09:42:25;;;;;;;6.90;3.40;;;37.20;41.00;;;36.40;24.83;99868.13;10439002;27;96649;-84
2022/07/23 09:47:31;;;;;;;5.93;3.50;;;37.30;41.20;;;36.49;25.22;99864.44;10426490;27;96913;-85
2022/07/23 09:52:48;;;;;;;5.80;3.50;;;37.30;41.30;;;36.60;24.76;99857.25;10428569;27;96632;-85
2022/07/23 09:57:54;;;;;;;6.40;3.45;;;37.40;41.30;;;36.76;24.88;99854.53;10455004;27;96958;-85
2022/07/23 10:02:59;;;;;;;5.72;3.15;;;37.60;41.00;;;36.96;24.51;99859.91;10430314;27;97224;-84
2022/07/23 10:08:03;;;;;;;6.22;3.00;;;37.80;41.20;;;37.09;24.04;99855.09;10440387;27;97626;-84
2022/07/23 10:18:13;;;;;;;5.05;2.97;;;38.00;40.00;;;37.22;22.46;99848.34;10441153;27;96998;-85
2022/07/23 10:23:43;;;;;;;4.63;3.35;;;38.10;39.20;;;36.94;22.76;99836.47;10423064;27;97579;-84
2022/07/23 10:29:21;;;;;;;9.13;3.40;;;37.80;38.90;;;37.07;22.81;99840.03;10428323;27;97220;-84
2022/07/23 10:35:05;;;;;;;5.55;3.13;;;37.80;39.30;;;37.33;22.15;99832.00;10448930;27;96628;-83
2022/07/23 10:40:23;;;;;;;5.35;3.30;;;38.10;38.60;;;37.63;22.28;99824.06;10422042;27;97062;-82
2022/07/23 10:45:34;;;;;;;8.17;3.90;;;38.30;39.00;;;37.71;21.22;99813.97;10429650;27;96793;-85
2022/07/23 10:50:39;;;;;;;6.90;4.50;;;38.50;38.30;;;37.83;21.82;99819.44;10458171;27;97333;-83
2022/07/23 10:55:48;;;;;;;7.57;3.92;;;38.60;38.20;;;38.07;21.23;99829.50;10447810;27;97650;-82
2022/07/23 11:00:51;;;;;;;7.10;3.88;;;38.80;38.20;;;38.07;21.08;99809.28;10438922;27;96889;-83
2022/07/23 11:05:54;;;;;;;4.43;4.03;;;38.90;37.90;;;38.29;21.04;99805.84;10433213;27;98159;-85
2022/07/23 11:11:03;;;;;;;6.75;4.10;;;39.10;37.70;;;38.43;21.20;99806.13;10422187;27;97132;-84
2022/07/23 11:16:22;;;;;;;4.35;3.95;;;39.20;38.00;;;38.35;21.81;99790.50;10431631;27;96681;-85
2022/07/23 11:21:31;;;;;;;4.30;3.80;;;39.20;38.20;;;38.59;21.62;99789.41;10436325;27;98008;-85
2022/07/23 11:26:40;;;;;;;5.78;3.95;;;39.30;38.40;;;38.78;21.21;99800.53;10458591;27;96669;-83
2022/07/23 11:31:57;;;;;;;6.53;3.80;;;39.50;38.20;;;38.64;21.18;99791.09;10439019;27;96934;-83
2022/07/23 11:37:03;;;;;;;;;;;39.50;37.80;;;38.77;20.84;99771.16;10446687;27;96826;-85
2022/07/23 11:42:07;;;;;;;5.05;3.13;;;39.60;37.90;;;38.70;20.75;99770.19;10440124;27;98623;-86
2022/07/23 11:47:14;;;;;;;5.38;3.38;;;39.70;37.70;;;38.58;20.67;99771.16;10437036;27;98185;-85
2022/07/23 11:52:17;;;;;;;6.23;3.67;;;39.60;37.30;;;38.39;20.82;99760.88;10441432;27;96661;-87
2022/07/23 11:57:32;;;;;;;6.10;3.70;;;39.50;37.50;;;38.31;20.84;99758.28;10459431;27;96608;-84
2022/07/23 12:02:35;;;;;;;5.65;3.90;;;39.30;37.60;;;38.55;20.93;99753.25;10435739;27;96677;-84
2022/07/23 12:07:50;;;;;;;6.82;4.53;;;39.40;37.60;;;38.65;20.42;99739.94;10437481;27;96678;-86
2022/07/23 12:13:03;;;;;;;5.25;3.63;;;39.50;37.40;;;38.78;19.99;99739.44;10448032;27;97175;-86
2022/07/23 12:18:10;;;;;;;6.22;4.25;;;39.70;37.10;;;38.70;20.58;99726.56;10441559;27;98447;-86
2022/07/23 12:23:17;;;;;;;4.07;3.60;;;39.60;36.90;;;38.79;20.21;99729.13;10463911;27;97101;-85
2022/07/23 12:28:30;;;;;;;7.65;3.42;;;39.60;37.00;;;38.80;19.94;99720.41;10457398;27;96575;-84
2022/07/23 12:33:37;;;;;;;4.10;3.67;;;39.70;36.50;;;38.80;19.74;99714.06;10448102;27;96786;-86
2022/07/23 12:38:46;;;;;;;4.60;3.60;;;39.70;36.40;;;38.69;20.17;99708.31;10442591;27;96521;-85
2022/07/23 12:43:49;;;;;;;5.30;3.60;;;39.50;36.80;;;38.69;20.50;99701.94;10430068;27;97060;-87
2022/07/23 12:48:54;;;;;;;4.78;3.90;;;39.50;37.30;;;38.82;20.28;99700.63;10440270;27;96691;-86
2022/07/23 12:54:05;;;;;;;4.53;4.00;;;39.60;37.10;;;39.04;19.56;99697.03;10449141;27;96618;-84
2022/07/23 12:59:16;;;;;;;4.78;4.30;;;39.80;36.60;;;39.23;19.35;99684.28;10460922;27;96459;-86
2022/07/23 13:04:38;;;;;;;7.53;4.20;;;39.90;36.30;;;39.38;19.56;99674.97;10441283;27;96613;-86
2022/07/23 13:09:43;;;;;;;5.53;3.88;;;40.10;36.30;;;39.47;19.49;99678.28;10441076;27;98559;-86
2022/07/23 13:14:46;;;;;;;6.28;3.72;;;40.20;36.30;;;39.44;18.93;99672.66;10426838;27;96747;-86
2022/07/23 13:19:49;;;;;;;4.45;3.58;;;40.30;35.80;;;39.11;19.45;99673.31;10427536;27;97716;-85
2022/07/23 13:24:52;;;;;;;5.47;3.55;;;39.90;36.00;;;38.79;19.98;99679.13;10441643;27;96949;-85
2022/07/23 13:29:55;;;;;;;3.72;3.05;;;39.70;36.40;;;38.48;20.19;99669.03;10392049;28;99756;-83
2022/07/23 13:34:58;;;;;;;5.30;3.70;;;39.40;36.80;;;38.51;21.03;99657.22;10404515;28;98458;-83
2022/07/23 13:40:02;;;;;;;8.43;3.97;;;39.30;37.30;;;38.59;19.67;99653.38;10381147;28;96572;-84
2022/07/23 13:45:20;;;;;;;5.28;3.88;;;39.40;36.40;;;38.79;19.56;99645.81;10415950;27;97062;-84
2022/07/23 13:50:23;;;;;;;4.32;3.67;;;39.40;36.40;;;38.98;19.97;99633.81;10400102;28;96733;-84
2022/07/23 13:55:30;;;;;;;6.50;3.70;;;39.60;36.50;;;39.19;19.66;99641.72;10387097;28;96936;-84
2022/07/23 14:00:37;;;;;;;3.70;3.40;;;39.80;36.60;;;39.43;19.40;99630.16;10373605;28;97251;-83
2022/07/23 14:05:55;;;;;;;5.40;3.70;;;40.20;36.50;;;39.73;19.86;99623.84;10392020;28;97415;-83
2022/07/23 14:10:59;;;;;;;6.03;3.30;;;40.40;36.60;;;40.00;19.50;99619.00;10417946;28;98246;-84
2022/07/23 14:16:02;;;;;;;6.93;3.83;;;40.70;36.20;;;40.11;19.44;99615.19;10395146;28;96946;-84
2022/07/23 14:21:06;;;;;;;6.63;3.17;;;40.70;36.40;;;40.28;18.73;99612.97;10385987;28;96738;-83
2022/07/23 14:26:09;;;;;;;5.55;3.75;;;40.80;35.90;;;40.32;17.95;99594.34;10387410;27;96847;-86
2022/07/23 14:31:12;;;;;;;6.07;3.20;;;40.80;35.50;;;40.09;18.63;99580.59;10434624;27;96860;-85
2022/07/23 14:36:23;;;;;;;6.25;3.67;;;40.70;36.10;;;39.57;19.70;99573.94;10427697;27;97300;-84
2022/07/23 14:41:26;;;;;;;4.03;3.30;;;40.10;36.70;;;39.06;20.21;99555.78;10440250;27;96689;-85
2022/07/23 14:46:30;;;;;;;5.05;3.15;;;39.60;37.20;;;38.33;20.99;99561.69;10443866;27;98329;-84
2022/07/23 14:51:33;;;;;;;4.45;3.03;;;39.00;37.70;;;37.75;21.89;99560.59;10405201;27;96961;-84
2022/07/23 14:56:37;;;;;;;4.30;3.25;;;38.40;38.40;;;37.30;22.60;99572.25;10421273;27;97665;-83
2022/07/23 15:01:40;;;;;;;5.13;3.25;;;38.00;39.00;;;36.97;23.12;99572.72;10433896;27;96816;-84
2022/07/23 15:06:44;;;;;;;8.07;3.33;;;37.60;39.10;;;36.66;24.38;99581.81;10411737;27;96570;-84
2022/07/23 15:11:47;;;;;;;5.20;3.75;;;37.40;40.20;;;36.33;24.72;99590.44;10434914;27;96759;-84
2022/07/23 15:16:51;;;;;;;7.30;3.58;;;37.10;40.80;;;36.04;25.56;99595.19;10438595;27;96649;-84
2022/07/23 15:22:14;;;;;;;11.90;4.13;;;36.70;41.30;;;35.58;25.88;99596.63;10419722;27;98659;-84
2022/07/23 15:27:17;;;;;;;6.40;3.90;;;36.30;41.80;;;35.03;26.30;99598.06;10463302;27;97509;-84
2022/07/23 15:32:24;;;;;;;4.80;3.22;;;35.80;42.20;;;34.61;26.92;99606.53;10431941;27;96618;-84
2022/07/23 15:37:29;;;;;;;8.52;3.53;;;35.30;42.70;;;34.26;27.56;99623.41;10422472;27;97410;-84
2022/07/23 15:42:32;;;;;;;5.10;3.55;;;35.00;43.30;;;33.97;29.24;99651.09;10451107;27;97515;-84
2022/07/23 15:47:35;;;;;;;22.35;8.50;;;34.70;44.40;;;33.51;27.62;99683.94;10434205;27;97457;-83
2022/07/23 15:52:38;;;;;;;17.42;7.75;;;34.20;43.10;;;32.96;29.89;99704.13;10434601;27;96588;-84
2022/07/23 15:57:41;;;;;;;12.02;7.13;;;33.70;44.80;;;32.32;31.75;99715.00;10437494;27;97015;-81
2022/07/23 16:02:44;;;;;;;9.75;7.18;;;33.10;46.50;;;31.69;32.31;99699.94;10456685;27;96692;-83
2022/07/23 16:07:47;;;;;;;11.00;7.00;;;32.50;47.00;;;31.29;33.07;99721.13;10468551;27;96483;-85
2022/07/23 16:12:50;;;;;;;22.88;8.10;;;32.00;47.50;;;31.08;31.83;99718.13;10443464;27;96707;-82
2022/07/23 16:17:57;;;;;;;11.02;6.68;;;31.70;46.30;;;30.81;33.08;99702.63;10445355;27;96587;-81
2022/07/23 16:23:01;;;;;;;7.60;6.80;;;31.50;47.70;;;30.56;33.17;99750.69;10462954;27;98500;-82
2022/07/23 16:28:05;;;;;;;9.02;7.25;;;31.30;48.30;;;30.34;34.06;99760.50;10417761;27;96887;-84
2022/07/23 16:33:09;;;;;;;8.30;7.60;;;31.10;48.20;;;30.10;33.73;99806.50;10452857;27;98545;-82
2022/07/23 16:38:12;;;;;;;10.57;8.20;;;30.80;48.00;;;30.02;32.91;99879.28;10469420;27;97260;-80
2022/07/23 16:43:15;;;;;;;12.93;7.10;;;30.70;47.10;;;29.62;38.61;99899.22;10440943;27;96731;-79
2022/07/23 16:48:19;;;;;;;11.85;7.35;;;30.50;52.20;;;28.69;44.84;99899.84;10449491;27;98719;-82
2022/07/23 16:53:21;;;;;;;8.18;6.55;;;29.70;58.40;;;27.44;48.79;99913.50;10427301;27;97374;-83
2022/07/23 16:58:25;;;;;;;9.57;7.03;;;28.40;62.50;;;26.33;52.67;99907.63;10433408;27;97942;-83
2022/07/23 17:03:29;;;;;;;8.68;7.78;;;27.30;65.50;;;25.62;54.56;99888.75;10459969;27;96534;-82
2022/07/23 17:08:32;;;;;;;8.20;7.20;;;26.50;67.30;;;25.28;56.31;99885.78;10445423;27;96612;-86
2022/07/23 17:13:35;;;;;;;9.38;7.40;;;26.10;68.90;;;25.21;54.99;99858.88;10461390;27;96752;-82
2022/07/23 17:18:38;;;;;;;7.53;6.72;;;26.00;67.80;;;25.31;54.04;99836.31;10450682;27;96923;-84
2022/07/23 17:23:41;;;;;;;7.70;7.00;;;26.10;66.60;;;25.37;55.03;99810.72;10467524;27;96410;-82
2022/07/23 17:28:44;;;;;;;9.75;7.65;;;26.20;67.20;;;25.43;54.93;99801.47;10451428;27;96566;-83
2022/07/23 17:33:47;;;;;;;8.93;7.50;;;26.30;67.30;;;25.45;56.19;99776.69;10437475;27;96717;-82
2022/07/23 17:38:53;;;;;;;9.30;8.30;;;26.20;68.20;;;25.49;56.29;99766.88;10424973;27;96603;-85
2022/07/23 17:43:58;;;;;;;8.80;7.40;;;26.30;68.80;;;25.52;55.87;99769.06;10449533;27;97898;-84
2022/07/23 17:49:01;;;;;;;8.55;7.43;;;26.30;68.20;;;25.57;53.92;99763.59;10449411;27;96828;-83
2022/07/23 17:54:05;;;;;;;7.78;6.93;;;26.30;66.30;;;25.71;51.97;99764.63;10422653;27;96883;-82
2022/07/23 17:59:08;;;;;;;8.25;7.45;;;26.50;64.50;;;25.90;50.35;99773.00;10448978;27;96594;-86
2022/07/23 18:04:13;;;;;;;8.05;7.22;;;26.60;62.80;;;26.07;48.83;99768.03;10436900;27;96686;-83
2022/07/23 18:09:17;;;;;;;7.45;6.28;;;26.80;61.20;;;26.24;48.89;99769.56;10442783;27;97129;-86
2022/07/23 18:14:20;;;;;;;7.75;6.47;;;27.00;61.40;;;26.31;48.48;99768.16;10418337;27;97366;-86
2022/07/23 18:19:23;;;;;;;7.03;6.20;;;27.10;61.00;;;26.35;48.79;99788.31;10432831;27;96628;-86
2022/07/23 18:24:27;;;;;;;7.55;6.40;;;27.20;61.20;;;26.39;48.95;99792.09;10442647;27;96638;-87
2022/07/23 18:29:32;;;;;;;6.88;6.28;;;27.20;61.40;;;26.38;49.33;99795.09;10411544;27;96551;-85
2022/07/23 18:34:35;;;;;;;7.53;6.80;;;27.30;61.70;;;26.29;49.91;99781.25;10460682;27;97180;-86
2022/07/23 18:39:38;;;;;;;14.63;13.05;;;27.20;62.20;;;26.17;50.95;99790.88;10444190;27;96605;-87
2022/07/23 18:44:42;;;;;;;9.02;8.07;;;27.10;63.10;;;26.00;50.55;99793.94;10444397;27;98328;-87
2022/07/23 18:49:45;;;;;;;8.43;7.57;;;26.90;62.90;;;25.89;49.38;99788.53;10424556;27;96724;-87
2022/07/23 18:54:48;;;;;;;8.80;7.60;;;26.70;62.10;;;25.89;49.12;99796.69;10444211;27;98145;-88
2022/07/23 18:59:51;;;;;;;9.25;7.78;;;26.70;61.80;;;25.91;49.03;99806.50;10459470;27;98144;-89
2022/07/23 19:04:54;;;;;;;7.68;6.95;;;26.70;61.70;;;25.93;49.56;99821.47;10429907;27;97454;-88
2022/07/23 19:09:58;;;;;;;8.98;7.60;;;26.70;62.10;;;25.90;50.03;99816.56;10421364;27;97542;-89
2022/07/23 19:15:01;;;;;;;7.78;6.97;;;26.80;62.50;;;25.87;50.41;99823.41;10424971;27;96605;-89
2022/07/23 19:20:10;;;;;;;9.13;6.90;;;26.80;62.60;;;25.85;50.92;99833.75;10411110;28;96866;-87
2022/07/23 19:25:13;;;;;;;9.43;7.35;;;26.70;63.00;;;25.86;51.24;99827.22;10434716;27;96600;-89
2022/07/23 19:30:16;;;;;;;7.70;6.50;;;26.80;63.40;;;25.94;50.02;99839.44;10458721;27;96780;-89
2022/07/23 19:35:20;;;;;;;7.75;6.70;;;26.80;62.30;;;26.00;49.18;99842.94;10460871;27;96497;-87
2022/07/23 19:40:24;;;;;;;8.02;7.13;;;26.90;61.30;;;26.11;47.86;99844.53;10426680;27;96999;-88
2022/07/23 19:45:27;;;;;;;7.88;7.10;;;27.00;60.20;;;26.20;47.12;99848.28;10458915;27;96744;-90
2022/07/23 19:50:31;;;;;;;8.40;7.47;;;27.10;59.60;;;26.30;46.14;99853.69;10443220;27;96687;-90
2022/07/23 19:55:34;;;;;;;8.80;7.13;;;27.20;58.80;;;26.40;45.69;99866.47;10456971;27;96636;-86
2022/07/23 20:00:41;;;;;;;7.75;7.00;;;27.30;58.40;;;26.49;45.11;99864.78;10427018;27;96929;-86
2022/07/23 20:05:44;;;;;;;7.90;6.82;;;27.40;58.00;;;26.56;44.81;99859.84;10445467;27;96568;-85
2022/07/23 20:10:47;;;;;;;6.88;6.28;;;27.40;57.60;;;26.60;45.04;99865.56;10426168;27;98214;-86
2022/07/23 20:15:51;;;;;;;8.82;6.90;;;27.50;57.50;;;26.60;44.68;99860.91;10431248;27;96660;-87
2022/07/23 20:20:56;;;;;;;8.75;6.30;;;27.60;57.50;;;26.59;45.24;99863.94;10419194;27;96748;-80
2022/07/23 20:25:59;;;;;;;7.90;6.25;;;27.60;57.40;;;26.55;44.99;99868.31;10418307;27;97126;-80
2022/07/23 20:31:03;;;;;;;8.38;6.03;;;27.50;57.30;;;26.53;44.78;99878.69;10422186;27;97348;-80
2022/07/23 20:36:09;;;;;;;6.82;5.90;;;27.50;57.40;;;26.49;45.10;99866.72;10432250;27;98153;-80
2022/07/23 20:41:12;;;;;;;6.10;5.50;;;27.40;57.50;;;26.44;44.93;99861.28;10427273;27;96439;-80
2022/07/23 20:46:15;;;;;;;6.22;5.63;;;27.40;57.70;;;26.39;45.56;99865.66;10428175;27;98257;-81
2022/07/23 20:51:18;;;;;;;6.65;6.05;;;27.30;57.70;;;26.37;45.46;99859.66;10426515;27;96555;-81
2022/07/23 20:56:21;;;;;;;7.35;5.75;;;27.30;57.80;;;26.35;45.44;99861.03;10450668;27;96789;-81
2022/07/23 21:01:25;;;;;;;7.20;5.57;;;27.30;57.80;;;26.33;45.32;99874.94;10457931;27;96646;-81
2022/07/23 21:06:28;;;;;;;6.97;5.43;;;27.30;57.80;;;26.34;45.43;99865.69;10466886;27;96514;-81
2022/07/23 21:11:31;;;;;;;5.88;4.88;;;27.30;57.70;;;26.40;45.25;99869.19;10428705;27;96962;-81